createdAt,value
2022-12-14T00:00:51.929Z,984.35
2022-12-14T00:01:51.864Z,984.34
2022-12-14T00:02:51.958Z,984.34
2022-12-14T00:03:51.899Z,984.32
2022-12-14T00:04:51.829Z,984.34
2022-12-14T00:05:51.835Z,984.27
2022-12-14T00:06:51.818Z,984.28
2022-12-14T00:07:51.805Z,984.24
2022-12-14T00:08:51.803Z,984.24
2022-12-14T00:09:51.785Z,984.20
2022-12-14T00:10:51.770Z,984.19
2022-12-14T00:11:51.761Z,984.17
2022-12-14T00:12:51.769Z,984.20
2022-12-14T00:13:51.736Z,984.16
2022-12-14T00:14:51.745Z,984.17
2022-12-14T00:15:51.754Z,984.15
2022-12-14T00:16:51.702Z,984.15
2022-12-14T00:17:51.675Z,984.13
2022-12-14T00:18:51.682Z,984.11
2022-12-14T00:19:51.653Z,984.08
2022-12-14T00:20:51.660Z,984.08
2022-12-14T00:21:51.645Z,984.03
2022-12-14T00:22:51.623Z,984.02
2022-12-14T00:23:51.613Z,984.03
2022-12-14T00:24:51.606Z,984.02
2022-12-14T00:25:51.597Z,984.03
2022-12-14T00:26:51.572Z,984.00
2022-12-14T00:27:51.561Z,984.01
2022-12-14T00:28:51.578Z,983.99
2022-12-14T00:29:51.538Z,983.99
2022-12-14T00:30:56.583Z,983.95
2022-12-14T00:31:51.605Z,983.96
2022-12-14T00:32:51.518Z,983.93
2022-12-14T00:33:52.021Z,983.91
2022-12-14T00:34:51.484Z,983.92
2022-12-14T00:35:51.600Z,983.92
2022-12-14T00:36:51.475Z,983.94
2022-12-14T00:37:51.524Z,983.89
2022-12-14T00:38:51.435Z,983.96
2022-12-14T00:39:51.451Z,983.88
2022-12-14T00:40:51.416Z,983.92
2022-12-14T00:41:51.401Z,983.89
2022-12-14T00:42:51.400Z,983.91
2022-12-14T00:43:51.390Z,983.87
2022-12-14T00:44:51.385Z,983.88
2022-12-14T00:45:51.367Z,983.88
2022-12-14T00:46:51.379Z,983.87
2022-12-14T00:47:51.366Z,983.83
2022-12-14T00:48:51.330Z,983.85
2022-12-14T00:49:51.304Z,983.80
2022-12-14T00:50:51.303Z,983.76
2022-12-14T00:51:51.305Z,983.77
2022-12-14T00:52:51.266Z,983.74
2022-12-14T00:53:51.288Z,983.74
2022-12-14T00:54:51.278Z,983.71
2022-12-14T00:55:51.244Z,983.78
2022-12-14T00:56:51.233Z,983.74
2022-12-14T00:57:51.227Z,983.80
2022-12-14T00:58:51.202Z,983.74
2022-12-14T00:59:51.188Z,983.72
2022-12-14T01:00:51.183Z,983.77
2022-12-14T01:01:51.282Z,983.70
2022-12-14T01:02:51.164Z,983.74
2022-12-14T01:03:51.211Z,983.66
2022-12-14T01:04:51.141Z,983.67
2022-12-14T01:05:51.139Z,983.65
2022-12-14T01:06:51.112Z,983.68
2022-12-14T01:07:51.107Z,983.65
2022-12-14T01:08:51.094Z,983.63
2022-12-14T01:09:51.108Z,983.58
2022-12-14T01:10:51.059Z,983.56
2022-12-14T01:11:51.057Z,983.56
2022-12-14T01:12:51.041Z,983.54
2022-12-14T01:13:51.040Z,983.53
2022-12-14T01:14:51.013Z,983.53
2022-12-14T01:15:51.118Z,983.53
2022-12-14T01:16:51.018Z,983.54
2022-12-14T01:17:50.985Z,983.54
2022-12-14T01:18:50.974Z,983.55
2022-12-14T01:19:50.969Z,983.52
2022-12-14T01:20:50.957Z,983.54
2022-12-14T01:21:50.946Z,983.54
2022-12-14T01:22:50.924Z,983.50
2022-12-14T01:23:50.911Z,983.48
2022-12-14T01:24:50.904Z,983.49
2022-12-14T01:25:50.892Z,983.46
2022-12-14T01:26:50.908Z,983.49
2022-12-14T01:27:50.863Z,983.51
2022-12-14T01:28:50.857Z,983.46
2022-12-14T01:29:50.847Z,983.47
2022-12-14T01:30:50.874Z,983.43
2022-12-14T01:31:50.817Z,983.45
2022-12-14T01:32:50.826Z,983.43
2022-12-14T01:33:50.800Z,983.40
2022-12-14T01:34:50.787Z,983.41
2022-12-14T01:35:50.811Z,983.35
2022-12-14T01:36:50.774Z,983.34
2022-12-14T01:37:50.756Z,983.33
2022-12-14T01:38:50.748Z,983.28
2022-12-14T01:39:50.736Z,983.29
2022-12-14T01:40:50.713Z,983.28
2022-12-14T01:41:50.720Z,983.26
2022-12-14T01:42:50.699Z,983.26
2022-12-14T01:43:50.713Z,983.23
2022-12-14T01:44:50.675Z,983.23
2022-12-14T01:45:50.678Z,983.15
2022-12-14T01:46:50.747Z,983.20
2022-12-14T01:47:50.632Z,983.15
2022-12-14T01:48:50.637Z,983.13
2022-12-14T01:49:50.612Z,983.16
2022-12-14T01:50:50.598Z,983.15
2022-12-14T01:51:50.598Z,983.19
2022-12-14T01:52:50.626Z,983.20
2022-12-14T01:53:50.573Z,983.21
2022-12-14T01:54:50.559Z,983.24
2022-12-14T01:55:50.541Z,983.19
2022-12-14T01:56:50.524Z,983.15
2022-12-14T01:57:50.515Z,983.15
2022-12-14T01:58:50.533Z,983.11
2022-12-14T01:59:50.499Z,983.13
2022-12-14T02:00:50.487Z,983.04
2022-12-14T02:01:50.619Z,983.08
2022-12-14T02:02:50.514Z,983.06
2022-12-14T02:03:50.542Z,983.04
2022-12-14T02:04:50.437Z,982.97
2022-12-14T02:05:50.426Z,983.01
2022-12-14T02:06:50.431Z,982.97
2022-12-14T02:07:50.401Z,982.93
2022-12-14T02:08:50.396Z,982.97
2022-12-14T02:09:50.387Z,982.97
2022-12-14T02:10:50.374Z,982.97
2022-12-14T02:11:50.378Z,982.93
2022-12-14T02:12:50.341Z,982.95
2022-12-14T02:13:50.365Z,982.88
2022-12-14T02:14:50.323Z,982.86
2022-12-14T02:15:50.338Z,982.88
2022-12-14T02:16:50.300Z,982.82
2022-12-14T02:17:50.282Z,982.77
2022-12-14T02:18:50.291Z,982.78
2022-12-14T02:19:50.286Z,982.79
2022-12-14T02:20:50.271Z,982.74
2022-12-14T02:21:50.244Z,982.76
2022-12-14T02:22:50.238Z,982.71
2022-12-14T02:23:50.221Z,982.71
2022-12-14T02:24:50.211Z,982.70
2022-12-14T02:25:50.197Z,982.67
2022-12-14T02:26:50.208Z,982.66
2022-12-14T02:27:50.183Z,982.63
2022-12-14T02:28:50.159Z,982.63
2022-12-14T02:29:50.155Z,982.63
2022-12-14T02:30:50.150Z,982.62
2022-12-14T02:31:50.186Z,982.61
2022-12-14T02:32:50.134Z,982.59
2022-12-14T02:33:50.106Z,982.61
2022-12-14T02:34:50.104Z,982.57
2022-12-14T02:35:50.084Z,982.56
2022-12-14T02:36:50.066Z,982.58
2022-12-14T02:37:50.061Z,982.56
2022-12-14T02:38:50.057Z,982.56
2022-12-14T02:39:50.046Z,982.53
2022-12-14T02:40:50.041Z,982.49
2022-12-14T02:41:50.011Z,982.47
2022-12-14T02:42:50.000Z,982.49
2022-12-14T02:43:49.985Z,982.47
2022-12-14T02:44:49.976Z,982.41
2022-12-14T02:45:49.973Z,982.39
2022-12-14T02:46:50.616Z,982.36
2022-12-14T02:47:49.942Z,982.41
2022-12-14T02:48:49.933Z,982.35
2022-12-14T02:49:49.928Z,982.36
2022-12-14T02:50:49.914Z,982.33
2022-12-14T02:51:49.929Z,982.30
2022-12-14T02:52:49.889Z,982.28
2022-12-14T02:53:49.871Z,982.24
2022-12-14T02:54:49.864Z,982.28
2022-12-14T02:55:49.858Z,982.21
2022-12-14T02:56:49.831Z,982.26
2022-12-14T02:57:49.838Z,982.30
2022-12-14T02:58:49.822Z,982.35
2022-12-14T02:59:49.820Z,982.34
2022-12-14T03:00:49.815Z,982.33
2022-12-14T03:01:49.965Z,982.29
2022-12-14T03:02:49.901Z,982.22
2022-12-14T03:03:49.782Z,982.23
2022-12-14T03:04:49.756Z,982.23
2022-12-14T03:05:49.738Z,982.08
2022-12-14T03:06:49.727Z,982.10
2022-12-14T03:07:49.710Z,982.09
2022-12-14T03:08:49.705Z,982.07
2022-12-14T03:09:49.703Z,982.05
2022-12-14T03:10:49.679Z,982.03
2022-12-14T03:11:49.663Z,982.04
2022-12-14T03:12:49.653Z,982.04
2022-12-14T03:13:49.667Z,982.05
2022-12-14T03:14:49.626Z,982.05
2022-12-14T03:15:49.668Z,982.07
2022-12-14T03:16:49.612Z,982.05
2022-12-14T03:17:49.616Z,982.09
2022-12-14T03:18:49.586Z,982.09
2022-12-14T03:19:49.599Z,982.08
2022-12-14T03:20:49.573Z,982.06
2022-12-14T03:21:49.551Z,982.03
2022-12-14T03:22:49.544Z,982.00
2022-12-14T03:23:49.524Z,981.95
2022-12-14T03:24:49.526Z,981.97
2022-12-14T03:25:49.530Z,981.90
2022-12-14T03:26:49.500Z,981.88
2022-12-14T03:27:49.486Z,981.89
2022-12-14T03:28:49.469Z,981.89
2022-12-14T03:29:49.461Z,981.86
2022-12-14T03:31:04.836Z,981.82
2022-12-14T03:31:49.517Z,981.81
2022-12-14T03:32:49.423Z,981.84
2022-12-14T03:33:49.431Z,981.82
2022-12-14T03:34:49.410Z,981.84
2022-12-14T03:35:49.395Z,981.82
2022-12-14T03:36:49.393Z,981.74
2022-12-14T03:37:53.042Z,981.79
2022-12-14T03:38:49.424Z,981.75
2022-12-14T03:39:49.345Z,981.75
2022-12-14T03:40:49.332Z,981.78
2022-12-14T03:41:49.323Z,981.79
2022-12-14T03:42:49.603Z,981.80
2022-12-14T03:43:49.658Z,981.80
2022-12-14T03:44:50.056Z,981.84
2022-12-14T03:45:49.350Z,981.77
2022-12-14T03:46:49.265Z,981.81
2022-12-14T03:47:49.247Z,981.82
2022-12-14T03:48:49.259Z,981.87
2022-12-14T03:49:49.231Z,981.86
2022-12-14T03:50:49.223Z,981.82
2022-12-14T03:51:49.208Z,981.79
2022-12-14T03:52:49.204Z,981.82
2022-12-14T03:53:49.201Z,981.81
2022-12-14T03:56:16.557Z,981.83
2022-12-14T03:56:21.345Z,981.86
2022-12-14T03:57:21.345Z,981.84
2022-12-14T03:58:21.331Z,981.86
2022-12-14T03:59:21.325Z,981.85
2022-12-14T04:00:21.304Z,981.88
2022-12-14T04:01:21.477Z,981.88
2022-12-14T04:02:21.501Z,981.92
2022-12-14T04:03:21.315Z,981.89
2022-12-14T04:04:21.254Z,981.95
2022-12-14T04:05:21.238Z,981.90
2022-12-14T04:06:21.236Z,981.88
2022-12-14T04:07:21.222Z,981.86
2022-12-14T04:08:21.213Z,981.88
2022-12-14T04:09:21.211Z,981.84
2022-12-14T04:10:21.195Z,981.87
2022-12-14T04:11:21.171Z,981.89
2022-12-14T04:12:21.180Z,981.87
2022-12-14T04:13:21.176Z,981.81
2022-12-14T04:14:21.154Z,981.84
2022-12-14T04:15:21.137Z,981.80
2022-12-14T04:16:21.174Z,981.78
2022-12-14T04:17:21.109Z,981.81
2022-12-14T04:18:21.103Z,981.82
2022-12-14T04:19:21.099Z,981.80
2022-12-14T04:20:21.075Z,981.85
2022-12-14T04:21:21.061Z,981.81
2022-12-14T04:22:21.045Z,981.84
2022-12-14T04:23:21.031Z,981.81
2022-12-14T04:24:21.054Z,981.83
2022-12-14T04:25:21.009Z,981.81
2022-12-14T04:26:21.003Z,981.80
2022-12-14T04:27:20.981Z,981.83
2022-12-14T04:28:20.992Z,981.81
2022-12-14T04:29:20.959Z,981.81
2022-12-14T04:30:20.962Z,981.84
2022-12-14T04:31:21.011Z,981.84
2022-12-14T04:32:20.991Z,981.80
2022-12-14T04:33:20.921Z,981.76
2022-12-14T04:34:20.902Z,981.72
2022-12-14T04:35:20.922Z,981.71
2022-12-14T04:36:20.884Z,981.71
2022-12-14T04:37:20.875Z,981.71
2022-12-14T04:38:20.872Z,981.63
2022-12-14T04:39:20.870Z,981.67
2022-12-14T04:40:20.844Z,981.63
2022-12-14T04:41:20.825Z,981.63
2022-12-14T04:42:20.818Z,981.62
2022-12-14T04:43:20.810Z,981.62
2022-12-14T04:44:20.813Z,981.67
2022-12-14T04:45:20.792Z,981.66
2022-12-14T04:46:20.815Z,981.59
2022-12-14T04:47:20.755Z,981.68
2022-12-14T04:48:20.750Z,981.67
2022-12-14T04:49:20.752Z,981.62
2022-12-14T04:50:20.744Z,981.63
2022-12-14T04:51:20.730Z,981.59
2022-12-14T04:52:20.702Z,981.64
2022-12-14T04:53:20.698Z,981.63
2022-12-14T04:54:20.673Z,981.58
2022-12-14T04:55:20.666Z,981.60
2022-12-14T04:56:20.680Z,981.64
2022-12-14T04:57:20.651Z,981.60
2022-12-14T04:58:20.641Z,981.60
2022-12-14T04:59:20.624Z,981.56
2022-12-14T05:00:20.608Z,981.57
2022-12-14T05:01:20.777Z,981.54
2022-12-14T05:02:20.740Z,981.50
2022-12-14T05:03:20.597Z,981.48
2022-12-14T05:04:20.557Z,981.50
2022-12-14T05:05:20.550Z,981.47
2022-12-14T05:06:20.564Z,981.41
2022-12-14T05:07:20.573Z,981.48
2022-12-14T05:08:20.541Z,981.41
2022-12-14T05:09:20.504Z,981.46
2022-12-14T05:10:20.510Z,981.41
2022-12-14T05:11:52.010Z,981.44
2022-12-14T05:12:20.500Z,981.48
2022-12-14T05:13:20.495Z,981.45
2022-12-14T05:14:20.449Z,981.42
2022-12-14T05:15:20.437Z,981.45
2022-12-14T05:16:20.460Z,981.42
2022-12-14T05:17:20.425Z,981.41
2022-12-14T05:18:20.429Z,981.39
2022-12-14T05:19:20.394Z,981.39
2022-12-14T05:20:20.381Z,981.38
2022-12-14T05:21:20.369Z,981.39
2022-12-14T05:22:20.367Z,981.38
2022-12-14T05:23:20.345Z,981.37
2022-12-14T05:24:20.381Z,981.29
2022-12-14T05:25:20.323Z,981.26
2022-12-14T05:26:20.320Z,981.30
2022-12-14T05:27:20.300Z,981.31
2022-12-14T05:28:20.363Z,981.28
2022-12-14T05:29:20.299Z,981.29
2022-12-14T05:30:20.273Z,981.22
2022-12-14T05:31:20.261Z,981.25
2022-12-14T05:32:20.243Z,981.23
2022-12-14T05:33:20.250Z,981.23
2022-12-14T05:34:20.237Z,981.26
2022-12-14T05:35:20.217Z,981.24
2022-12-14T05:36:20.204Z,981.21
2022-12-14T05:37:20.184Z,981.19
2022-12-14T05:38:20.181Z,981.18
2022-12-14T05:39:20.166Z,981.12
2022-12-14T05:40:20.151Z,981.17
2022-12-14T05:41:20.133Z,981.14
2022-12-14T05:42:20.126Z,981.12
2022-12-14T05:43:20.136Z,981.12
2022-12-14T05:44:20.106Z,981.10
2022-12-14T05:45:20.105Z,981.04
2022-12-14T05:46:20.142Z,981.06
2022-12-14T05:47:20.080Z,981.05
2022-12-14T05:48:20.062Z,981.01
2022-12-14T05:49:20.047Z,980.96
2022-12-14T05:50:20.037Z,980.93
2022-12-14T05:51:20.065Z,980.95
2022-12-14T05:52:20.017Z,980.94
2022-12-14T05:53:19.996Z,980.89
2022-12-14T05:54:19.988Z,980.94
2022-12-14T05:55:19.998Z,980.92
2022-12-14T05:56:19.969Z,980.90
2022-12-14T05:57:19.984Z,980.89
2022-12-14T05:58:19.955Z,980.93
2022-12-14T05:59:19.944Z,980.86
2022-12-14T06:00:19.921Z,980.90
2022-12-14T06:01:20.174Z,980.84
2022-12-14T06:02:20.051Z,980.81
2022-12-14T06:03:20.037Z,980.82
2022-12-14T06:04:19.941Z,980.80
2022-12-14T06:05:19.864Z,980.79
2022-12-14T06:06:19.849Z,980.80
2022-12-14T06:07:24.552Z,980.84
2022-12-14T06:08:19.835Z,980.80
2022-12-14T06:09:19.843Z,980.79
2022-12-14T06:10:19.805Z,980.81
2022-12-14T06:11:19.915Z,980.82
2022-12-14T06:12:19.780Z,980.81
2022-12-14T06:13:19.780Z,980.82
2022-12-14T06:14:19.787Z,980.81
2022-12-14T06:15:19.755Z,980.83
2022-12-14T06:16:19.843Z,980.82
2022-12-14T06:17:19.740Z,980.83
2022-12-14T06:18:19.743Z,980.78
2022-12-14T06:19:19.712Z,980.76
2022-12-14T06:20:19.716Z,980.78
2022-12-14T06:21:19.681Z,980.79
2022-12-14T06:22:19.669Z,980.80
2022-12-14T06:23:19.653Z,980.81
2022-12-14T06:24:19.653Z,980.80
2022-12-14T06:25:19.648Z,980.81
2022-12-14T06:26:19.625Z,980.81
2022-12-14T06:27:19.608Z,980.83
2022-12-14T06:28:19.607Z,980.80
2022-12-14T06:29:19.613Z,980.78
2022-12-14T06:30:19.589Z,980.77
2022-12-14T06:31:19.711Z,980.71
2022-12-14T06:32:19.550Z,980.75
2022-12-14T06:33:19.563Z,980.71
2022-12-14T06:34:23.477Z,980.70
2022-12-14T06:35:19.534Z,980.75
2022-12-14T06:36:19.504Z,980.73
2022-12-14T06:37:19.500Z,980.76
2022-12-14T06:38:19.486Z,980.73
2022-12-14T06:39:19.464Z,980.78
2022-12-14T06:40:19.464Z,980.76
2022-12-14T06:41:19.449Z,980.74
2022-12-14T06:42:19.435Z,980.78
2022-12-14T06:43:19.423Z,980.78
2022-12-14T06:44:19.415Z,980.77
2022-12-14T06:45:19.403Z,980.79
2022-12-14T06:46:19.459Z,980.78
2022-12-14T06:47:19.373Z,980.76
2022-12-14T06:48:19.378Z,980.72
2022-12-14T06:49:19.360Z,980.77
2022-12-14T06:50:19.363Z,980.73
2022-12-14T06:51:19.333Z,980.77
2022-12-14T06:52:25.011Z,980.80
2022-12-14T06:53:19.306Z,980.78
2022-12-14T06:54:19.308Z,980.77
2022-12-14T06:55:19.308Z,980.77
2022-12-14T06:56:19.271Z,980.78
2022-12-14T06:57:19.263Z,980.80
2022-12-14T06:58:19.266Z,980.80
2022-12-14T06:59:19.236Z,980.77
2022-12-14T07:00:19.224Z,980.79
2022-12-14T07:01:19.397Z,980.82
2022-12-14T07:02:19.347Z,980.79
2022-12-14T07:03:19.250Z,980.79
2022-12-14T07:04:19.181Z,980.73
2022-12-14T07:05:19.160Z,980.74
2022-12-14T07:06:19.165Z,980.75
2022-12-14T07:07:19.178Z,980.74
2022-12-14T07:08:19.132Z,980.72
2022-12-14T07:09:19.125Z,980.72
2022-12-14T07:10:19.123Z,980.71
2022-12-14T07:11:19.101Z,980.70
2022-12-14T07:12:19.085Z,980.72
2022-12-14T07:13:19.118Z,980.75
2022-12-14T07:14:19.065Z,980.73
2022-12-14T07:15:19.054Z,980.66
2022-12-14T07:16:19.092Z,980.72
2022-12-14T07:17:19.029Z,980.73
2022-12-14T07:18:19.024Z,980.75
2022-12-14T07:19:19.014Z,980.77
2022-12-14T07:20:19.084Z,980.76
2022-12-14T07:21:19.016Z,980.75
2022-12-14T07:22:19.394Z,980.68
2022-12-14T07:23:23.397Z,980.72
2022-12-14T07:24:19.104Z,980.70
2022-12-14T07:25:19.156Z,980.73
2022-12-14T07:26:19.395Z,980.75
2022-12-14T07:27:18.911Z,980.76
2022-12-14T07:28:18.899Z,980.80
2022-12-14T07:29:18.905Z,980.80
2022-12-14T07:30:18.904Z,980.82
2022-12-14T07:31:18.963Z,980.83
2022-12-14T07:32:18.850Z,980.80
2022-12-14T07:33:18.851Z,980.80
2022-12-14T07:34:18.828Z,980.79
2022-12-14T07:35:18.816Z,980.76
2022-12-14T07:36:18.819Z,980.74
2022-12-14T07:37:18.799Z,980.72
2022-12-14T07:38:18.780Z,980.73
2022-12-14T07:39:18.770Z,980.77
2022-12-14T07:40:18.767Z,980.74
2022-12-14T07:41:22.396Z,980.78
2022-12-14T07:42:18.745Z,980.74
2022-12-14T07:43:18.745Z,980.79
2022-12-14T07:44:18.712Z,980.78
2022-12-14T07:45:18.723Z,980.82
2022-12-14T07:46:18.812Z,980.80
2022-12-14T07:47:18.698Z,980.80
2022-12-14T07:48:18.671Z,980.82
2022-12-14T07:49:18.694Z,980.85
2022-12-14T07:50:18.671Z,980.88
2022-12-14T07:51:18.778Z,980.83
2022-12-14T07:52:18.648Z,980.87
2022-12-14T07:53:18.608Z,980.84
2022-12-14T07:54:18.623Z,980.83
2022-12-14T07:55:18.630Z,980.87
2022-12-14T07:56:18.584Z,980.88
2022-12-14T07:57:18.567Z,980.85
2022-12-14T07:58:18.615Z,980.84
2022-12-14T07:59:18.838Z,980.87
2022-12-14T08:00:19.196Z,980.86
2022-12-14T08:01:18.592Z,980.86
2022-12-14T08:02:18.652Z,980.86
2022-12-14T08:03:18.630Z,980.89
2022-12-14T08:04:18.846Z,980.87
2022-12-14T08:05:18.581Z,980.87
2022-12-14T08:06:18.468Z,980.89
2022-12-14T08:07:18.533Z,980.91
2022-12-14T08:08:18.448Z,980.91
2022-12-14T08:09:18.440Z,980.95
2022-12-14T08:10:18.463Z,980.92
2022-12-14T08:11:18.420Z,980.96
2022-12-14T08:12:18.397Z,980.94
2022-12-14T08:13:18.399Z,980.95
2022-12-14T08:14:18.379Z,980.91
2022-12-14T08:15:18.910Z,980.94
2022-12-14T08:16:18.463Z,980.95
2022-12-14T08:17:18.543Z,980.92
2022-12-14T08:18:18.859Z,980.93
2022-12-14T08:19:18.598Z,980.95
2022-12-14T08:20:18.597Z,980.98
2022-12-14T08:21:18.824Z,980.97
2022-12-14T08:22:18.411Z,980.99
2022-12-14T08:23:18.354Z,981.00
2022-12-14T08:24:18.263Z,980.95
2022-12-14T08:25:18.251Z,980.92
2022-12-14T08:26:18.244Z,980.92
2022-12-14T08:27:18.240Z,980.96
2022-12-14T08:28:18.224Z,980.94
2022-12-14T08:29:18.207Z,980.93
2022-12-14T08:30:18.195Z,981.00
2022-12-14T08:31:18.254Z,980.99
2022-12-14T08:32:18.193Z,980.93
2022-12-14T08:33:18.181Z,980.91
2022-12-14T08:34:18.156Z,980.94
2022-12-14T08:35:18.215Z,980.90
2022-12-14T08:36:18.139Z,980.96
2022-12-14T08:37:18.130Z,980.96
2022-12-14T08:38:18.113Z,980.94
2022-12-14T08:39:18.106Z,980.96
2022-12-14T08:40:18.084Z,980.97
2022-12-14T08:41:18.121Z,980.95
2022-12-14T08:42:18.072Z,980.92
2022-12-14T08:43:23.361Z,980.94
2022-12-14T08:44:18.061Z,980.97
2022-12-14T08:45:18.045Z,980.98
2022-12-14T08:46:18.065Z,981.01
2022-12-14T08:47:18.026Z,980.99
2022-12-14T08:48:17.991Z,981.00
2022-12-14T08:49:17.981Z,980.97
2022-12-14T08:50:17.972Z,980.98
2022-12-14T08:51:17.972Z,980.96
2022-12-14T08:52:17.985Z,980.99
2022-12-14T08:53:17.951Z,980.97
2022-12-14T08:54:17.945Z,981.03
2022-12-14T08:55:19.001Z,980.97
2022-12-14T08:56:17.910Z,980.99
2022-12-14T08:57:17.911Z,980.94
2022-12-14T08:58:17.899Z,980.94
2022-12-14T08:59:44.046Z,980.96
2022-12-14T09:00:17.884Z,980.96
2022-12-14T09:01:17.965Z,980.99
2022-12-14T09:02:17.957Z,980.95
2022-12-14T09:03:17.883Z,980.94
2022-12-14T09:04:17.847Z,980.96
2022-12-14T09:05:17.954Z,980.94
2022-12-14T09:06:17.801Z,980.91
2022-12-14T09:07:17.792Z,980.95
2022-12-14T09:08:17.814Z,981.00
2022-12-14T09:09:17.768Z,980.99
2022-12-14T09:10:17.786Z,981.04
2022-12-14T09:11:17.763Z,981.04
2022-12-14T09:12:17.755Z,981.04
2022-12-14T09:13:17.719Z,981.05
2022-12-14T09:14:17.728Z,981.09
2022-12-14T09:15:17.702Z,981.09
2022-12-14T09:16:17.748Z,981.11
2022-12-14T09:17:17.675Z,981.13
2022-12-14T09:18:17.682Z,981.14
2022-12-14T09:19:17.693Z,981.16
2022-12-14T09:20:17.657Z,981.12
2022-12-14T09:21:17.655Z,981.08
2022-12-14T09:22:18.690Z,981.06
2022-12-14T09:23:17.616Z,981.09
2022-12-14T09:24:17.595Z,981.12
2022-12-14T09:25:17.607Z,981.14
2022-12-14T09:26:17.577Z,981.11
2022-12-14T09:27:17.648Z,981.06
2022-12-14T09:28:17.548Z,981.10
2022-12-14T09:29:17.539Z,981.09
2022-12-14T09:30:20.464Z,981.09
2022-12-14T09:31:17.583Z,981.11
2022-12-14T09:32:17.505Z,981.06
2022-12-14T09:33:17.506Z,981.06
2022-12-14T09:34:17.488Z,981.06
2022-12-14T09:35:17.489Z,981.03
2022-12-14T09:36:17.484Z,981.02
2022-12-14T09:37:17.458Z,980.99
2022-12-14T09:38:17.444Z,981.00
2022-12-14T09:39:17.457Z,981.04
2022-12-14T09:40:17.423Z,981.03
2022-12-14T09:41:17.405Z,981.05
2022-12-14T09:42:17.406Z,981.05
2022-12-14T09:43:17.397Z,981.09
2022-12-14T09:44:18.821Z,981.05
2022-12-14T09:45:17.364Z,981.05
2022-12-14T09:46:17.444Z,981.10
2022-12-14T09:47:17.391Z,981.11
2022-12-14T09:48:17.328Z,981.13
2022-12-14T09:49:17.311Z,981.20
2022-12-14T09:50:17.333Z,981.13
2022-12-14T09:51:17.320Z,981.14
2022-12-14T09:52:17.291Z,981.14
2022-12-14T09:53:17.290Z,981.18
2022-12-14T09:54:17.274Z,981.16
2022-12-14T09:55:17.246Z,981.16
2022-12-14T09:56:17.251Z,981.22
2022-12-14T09:57:17.245Z,981.18
2022-12-14T09:58:17.216Z,981.23
2022-12-14T09:59:17.216Z,981.18
2022-12-14T10:00:17.192Z,981.14
2022-12-14T10:01:17.305Z,981.20
2022-12-14T10:02:33.417Z,981.17
2022-12-14T10:03:17.368Z,981.17
2022-12-14T10:04:17.300Z,981.15
2022-12-14T10:05:17.158Z,981.14
2022-12-14T10:06:17.140Z,981.11
2022-12-14T10:07:17.115Z,981.12
2022-12-14T10:08:17.109Z,981.11
2022-12-14T10:09:17.098Z,981.11
2022-12-14T10:10:17.081Z,981.09
2022-12-14T10:11:17.070Z,981.15
2022-12-14T10:12:17.075Z,981.13
2022-12-14T10:13:17.048Z,981.10
2022-12-14T10:14:17.062Z,981.07
2022-12-14T10:15:17.033Z,981.10
2022-12-14T10:16:17.113Z,981.02
2022-12-14T10:17:17.080Z,981.00
2022-12-14T10:18:41.299Z,980.98
2022-12-14T10:19:17.002Z,980.99
2022-12-14T10:20:16.999Z,981.04
2022-12-14T10:21:16.955Z,981.02
2022-12-14T10:22:16.964Z,981.01
2022-12-14T10:23:22.454Z,981.03
2022-12-14T10:24:16.949Z,981.07
2022-12-14T10:25:16.938Z,981.04
2022-12-14T10:26:16.901Z,981.06
2022-12-14T10:27:16.881Z,981.05
2022-12-14T10:28:16.894Z,981.12
2022-12-14T10:29:16.884Z,981.16
2022-12-14T10:30:16.874Z,981.13
2022-12-14T10:31:16.867Z,981.13
2022-12-14T10:32:16.844Z,981.13
2022-12-14T10:33:16.820Z,981.13
2022-12-14T10:34:16.818Z,981.07
2022-12-14T10:35:16.830Z,981.08
2022-12-14T10:36:16.808Z,981.08
2022-12-14T10:37:17.124Z,980.98
2022-12-14T10:38:16.770Z,981.01
2022-12-14T10:39:16.769Z,981.01
2022-12-14T10:40:27.405Z,981.01
2022-12-14T10:41:16.766Z,981.03
2022-12-14T10:42:16.730Z,981.04
2022-12-14T10:43:16.725Z,981.05
2022-12-14T10:44:16.700Z,981.05
2022-12-14T10:45:39.631Z,981.08
2022-12-14T10:46:16.786Z,981.08
2022-12-14T10:47:16.695Z,981.08
2022-12-14T10:48:16.654Z,981.09
2022-12-14T10:49:16.645Z,981.09
2022-12-14T10:50:16.711Z,981.11
2022-12-14T10:51:16.629Z,981.15
2022-12-14T10:52:16.631Z,981.18
2022-12-14T10:53:16.610Z,981.18
2022-12-14T10:54:16.615Z,981.25
2022-12-14T10:55:16.593Z,981.22
2022-12-14T10:56:16.617Z,981.19
2022-12-14T10:57:16.565Z,981.20
2022-12-14T10:58:16.552Z,981.19
2022-12-14T10:59:16.569Z,981.14
2022-12-14T11:00:23.212Z,981.18
2022-12-14T11:01:16.732Z,981.13
2022-12-14T11:02:16.665Z,981.11
2022-12-14T11:03:16.573Z,981.12
2022-12-14T11:04:16.482Z,981.07
2022-12-14T11:05:16.512Z,981.05
2022-12-14T11:06:16.463Z,981.04
2022-12-14T11:07:16.444Z,981.07
2022-12-14T11:08:16.437Z,981.02
2022-12-14T11:09:16.447Z,980.96
2022-12-14T11:10:16.414Z,980.98
2022-12-14T11:11:19.232Z,980.97
2022-12-14T11:12:16.469Z,980.92
2022-12-14T11:13:16.390Z,980.92
2022-12-14T11:14:16.369Z,980.94
2022-12-14T11:15:16.380Z,980.92
2022-12-14T11:16:16.484Z,980.92
2022-12-14T11:17:16.507Z,980.90
2022-12-14T11:18:16.526Z,980.88
2022-12-14T11:19:16.308Z,980.83
2022-12-14T11:20:16.321Z,980.84
2022-12-14T11:21:16.298Z,980.84
2022-12-14T11:22:22.164Z,980.81
2022-12-14T11:23:16.270Z,980.84
2022-12-14T11:24:16.279Z,980.86
2022-12-14T11:25:16.255Z,980.81
2022-12-14T11:26:16.250Z,980.83
2022-12-14T11:27:16.238Z,980.81
2022-12-14T11:28:16.222Z,980.86
2022-12-14T11:29:16.256Z,980.86
2022-12-14T11:30:16.199Z,980.87
2022-12-14T11:31:16.271Z,980.90
2022-12-14T11:32:16.188Z,980.92
2022-12-14T11:33:16.166Z,980.82
2022-12-14T11:34:21.772Z,980.92
2022-12-14T11:35:16.148Z,980.92
2022-12-14T11:36:16.131Z,980.90
2022-12-14T11:37:16.133Z,980.87
2022-12-14T11:38:16.115Z,980.87
2022-12-14T11:39:16.116Z,980.87
2022-12-14T11:40:16.080Z,980.92
2022-12-14T11:41:16.069Z,980.92
2022-12-14T11:42:16.069Z,980.87
2022-12-14T11:43:16.068Z,980.89
2022-12-14T11:44:16.061Z,980.84
2022-12-14T11:45:16.026Z,980.86
2022-12-14T11:46:16.046Z,980.81
2022-12-14T11:47:16.026Z,980.79
2022-12-14T11:48:15.996Z,980.78
2022-12-14T11:49:16.004Z,980.76
2022-12-14T11:50:15.974Z,980.79
2022-12-14T11:51:15.958Z,980.79
2022-12-14T11:52:15.958Z,980.80
2022-12-14T11:53:15.939Z,980.79
2022-12-14T11:54:15.934Z,980.75
2022-12-14T11:55:18.160Z,980.78
2022-12-14T11:56:15.914Z,980.74
2022-12-14T11:57:15.899Z,980.80
2022-12-14T11:58:15.894Z,980.76
2022-12-14T11:59:15.869Z,980.77
2022-12-14T12:00:15.858Z,980.82
2022-12-14T12:01:15.957Z,980.81
2022-12-14T12:02:15.888Z,980.81
2022-12-14T12:03:15.899Z,980.87
2022-12-14T12:04:15.922Z,980.85
2022-12-14T12:05:15.838Z,980.88
2022-12-14T12:06:15.797Z,980.82
2022-12-14T12:07:15.797Z,980.86
2022-12-14T12:08:15.762Z,980.86
2022-12-14T12:09:15.769Z,980.87
2022-12-14T12:10:15.763Z,980.85
2022-12-14T12:11:15.733Z,980.84
2022-12-14T12:12:15.725Z,980.82
2022-12-14T12:13:15.731Z,980.84
2022-12-14T12:14:15.717Z,980.84
2022-12-14T12:15:15.702Z,980.87
2022-12-14T12:16:15.756Z,980.86
2022-12-14T12:17:15.703Z,980.87
2022-12-14T12:18:15.675Z,980.88
2022-12-14T12:19:15.665Z,980.82
2022-12-14T12:20:15.696Z,980.86
2022-12-14T12:21:15.663Z,980.82
2022-12-14T12:22:15.617Z,980.89
2022-12-14T12:23:15.631Z,980.83
2022-12-14T12:24:15.603Z,980.87
2022-12-14T12:25:36.805Z,980.88
2022-12-14T12:26:15.584Z,980.89
2022-12-14T12:27:15.581Z,980.94
2022-12-14T12:28:15.552Z,980.92
2022-12-14T12:29:15.544Z,980.92